KTOL/TOL METAR and TAF weather

Enter ICAO airport designator
Station Type Date Time Source
KTOL METAR 2022/01/28 06:36 UTC NOAA

KTOL 280636Z 01010KT 10SM SCT019 OVC048 M04/M08 A3016 RMK AO2 SNB0558E25 P0000 T10391083


Station Type Date Time Source
KTOL Decoded METAR 2022/01/28 06:36 UTC NOAA

TOLEDO EXPRESS AIRPORT, OH, United States (KTOL) 41-35N 083-48W 210M
Jan 28, 2022 - 01:36 AM EST / 2022.01.28 0636 UTC
Wind: from the N (010 degrees) at 12 MPH (10 KT):0
Visibility: 10 mile(s):0
Sky conditions: overcast
Precipitation last hour: A trace
Temperature: 25.0 F (-3.9 C)
Windchill: 14 F (-10 C):1
Dew Point: 17.1 F (-8.3 C)
Relative Humidity: 71%
Pressure (altimeter): 30.16 in. Hg (1021 hPa)
ob: KTOL 280636Z 01010KT 10SM SCT019 OVC048 M04/M08 A3016 RMK AO2 SNB0558E25 P0000 T10391083
cycle: 6

Station Type Date Time Source
KTOL TAF 2022/01/28 06:28 UTC NOAA

TAF KTOL 280525Z 2806/2906 36008KT P6SM SCT005 BKN030
TEMPO 2806/2809 32010KT 3SM -SN

Example: see airport list